Sioux Falls, SD

11:26 AM CDT on September 21, 2014 (GMT -0500)
Northeast Sioux Falls | Change Station
CLOSE
Current Station
Personal Weather Station
Location: Sioux Falls, SD
Elevation: 1467 ft
Nearby Weather Stations

Elev 1467 ft 43.55 °N, 96.66 °W | Updated 52 seconds ago

Partly Cloudy
Partly Cloudy
63.3 °F
Feels Like 63.3 °F
N
0.0
Wind Variable Wind from East
Gusts 5.0 mph

Today
High -- | Low -- °F
--% Chance of Precip.
Yesterday
High -- | Low -- °F
Precip. -- in
7:12 AM 7:25 PM
Waning Crescent, 6% visible
Pressure 30.23 in
Visibility 10.0 miles
Clouds Few 4000 ft
Dew Point 50 °F
Humidity 63%
Rainfall 0.00 in
Snow Depth 0 in
UV 4 out of 12
Pollen 5.50 out of 12
Air Quality Not available.
Flu Activity Not available.
METAR KFSD 211556Z 34013KT 10SM FEW040 18/08 A3023 RMK AO2 SLP237 T01780083

More Conditions Fewer Conditions

Pressure 30.23 in
Visibility 10.0 miles
Clouds Few 4000 ft
Dew Point 50 °F
Humidity 63%
Rainfall 0.00 in
Snow Depth 0 in
UV 4 out of 12
Pollen 5.50 out of 12
Air Quality Not available.
Flu Activity Not available.
METAR KFSD 211556Z 34013KT 10SM FEW040 18/08 A3023 RMK AO2 SLP237 T01780083

More Conditions Fewer Conditions

10-Day Weather Forecast

Almanac

Astronomy

Sep. 21, 2014 Rise Set
Actual Time 7:12 AM CDT 7:25 PM CDT
Civil Twilight 6:44 AM CDT 7:54 PM CDT
Nautical Twilight 6:10 AM CDT 8:28 PM CDT
Astronomical Twilight 5:36 AM CDT 9:02 PM CDT
Moon 4:44 AM CDT 6:05 PM CDT
Length of Visible Light 13h 10m
Length of Day
12h 13m
Tomorrow will be 2m 58s shorter.
Waning Crescent, 6% of the Moon is Illuminated
Today
Waning Crescent
Sep 24
New
Oct 1
First Quarter
Oct 8
Full
Oct 15
Last Quarter

Today's Extremes

State Highs State Lows

Community

WunderPhotos

Upload Photos

1,755,183 photos uploaded!

Nearby

Snow Depth

Station Depth Elevation
Blind Park 0 in 6890 ft

Earthquake Activity

City Distance Mag. Time & Date
No recent earthquake activity has been reported nearby.
Minimum magnitude displayed is 2.5.

Coastal Water Temperatures

Place Temperature
No Stations Reporting

Nearby Weather Stations